Time;durP1;ratioP1;P1;durP2;ratioP2;P2;SDS_P1;SDS_P2;PMS_P1;PMS_P2;Temp;Humidity;BMP_temperature;BMP_pressure;BME280_temperature;BME280_humidity;BME280_pressure;Samples;Min_cycle;Max_cycle;Signal;HPM_P1;HPM_P2
2023/05/27 00:01:02;;;;;;;5.25;2.00;;;;;;;11.08;61.43;102808.84;5031347;28;20025;-78
2023/05/27 00:03:27;;;;;;;7.05;2.00;;;;;;;11.06;61.26;102813.19;5031372;28;20033;-77
2023/05/27 00:05:52;;;;;;;7.40;2.20;;;;;;;11.03;61.36;102818.38;5031582;28;20021;-77
2023/05/27 00:08:18;;;;;;;8.75;2.38;;;;;;;11.00;61.60;102815.75;5031209;28;20029;-78
2023/05/27 00:10:43;;;;;;;6.53;2.10;;;;;;;10.96;61.68;102814.00;5030058;28;20033;-77
2023/05/27 00:13:08;;;;;;;6.07;2.10;;;;;;;10.93;61.67;102814.00;5031218;28;20408;-77
2023/05/27 00:15:34;;;;;;;8.60;2.85;;;;;;;10.87;61.89;102814.81;5036879;28;20033;-78
2023/05/27 00:18:01;;;;;;;6.75;2.38;;;;;;;10.83;62.06;102810.50;5038381;28;20029;-78
2023/05/27 00:20:29;;;;;;;7.57;2.15;;;;;;;10.79;62.09;102813.94;5037119;28;20029;-78
2023/05/27 00:22:56;;;;;;;6.97;1.92;;;;;;;10.75;62.08;102810.44;5035543;28;20040;-78
2023/05/27 00:25:22;;;;;;;6.00;1.95;;;;;;;10.72;62.45;102804.34;5036385;28;20037;-78
2023/05/27 00:27:47;;;;;;;10.35;2.20;;;;;;;10.70;62.28;102806.94;5038226;28;20048;-78
2023/05/27 00:30:13;;;;;;;6.57;2.28;;;;;;;10.67;62.51;102799.09;5038024;28;20033;-78
2023/05/27 00:32:38;;;;;;;6.07;2.45;;;;;;;10.64;62.60;102804.28;5038057;28;20082;-78
2023/05/27 00:35:04;;;;;;;11.23;2.60;;;;;;;10.59;62.69;102803.41;5037832;28;20029;-78
2023/05/27 00:37:29;;;;;;;10.15;2.55;;;;;;;10.54;62.64;102800.75;5038108;28;20041;-78
2023/05/27 00:39:55;;;;;;;8.27;2.25;;;;;;;10.51;62.85;102792.94;5038020;28;20024;-78
2023/05/27 00:42:20;;;;;;;7.28;2.30;;;;;;;10.47;62.75;102797.25;5037712;28;20479;-78
2023/05/27 00:44:45;;;;;;;7.57;2.20;;;;;;;10.45;62.94;102798.97;5037936;28;20025;-78
2023/05/27 00:47:11;;;;;;;9.27;2.20;;;;;;;10.42;63.15;102795.50;5037810;28;20029;-78
2023/05/27 00:49:36;;;;;;;8.63;2.20;;;;;;;10.39;63.00;102796.34;5037649;28;20547;-78
2023/05/27 00:52:02;;;;;;;9.40;2.50;;;;;;;10.36;63.40;102796.28;5037626;28;20065;-78
2023/05/27 00:54:29;;;;;;;7.85;2.30;;;;;;;10.33;63.66;102797.13;5037958;28;20028;-78
2023/05/27 00:56:55;;;;;;;10.13;2.40;;;;;;;10.32;63.47;102794.53;5037869;28;20025;-78
2023/05/27 00:59:20;;;;;;;7.80;2.40;;;;;;;10.27;63.76;102791.00;5037546;28;20037;-78
2023/05/27 01:01:48;;;;;;;8.23;2.60;;;;;;;10.26;63.76;102795.34;5037250;28;20055;-78
2023/05/27 01:04:13;;;;;;;8.60;2.22;;;;;;;10.25;63.58;102784.91;5037901;28;20025;-78
2023/05/27 01:07:01;;;;;;;7.90;2.60;;;;;;;10.24;62.53;102785.81;5037878;28;20159;-78
2023/05/27 01:09:37;;;;;;;9.40;2.35;;;;;;;10.20;63.97;102792.69;5037928;28;20055;-78
2023/05/27 01:12:10;;;;;;;7.20;2.58;;;;;;;10.17;63.39;102780.56;5037449;28;20439;-78
2023/05/27 01:14:38;;;;;;;9.07;2.08;;;;;;;10.15;63.88;102784.88;5036875;28;20057;-78
2023/05/27 01:17:06;;;;;;;6.22;2.10;;;;;;;10.13;64.08;102783.97;5037771;28;20056;-78
2023/05/27 01:19:34;;;;;;;10.38;2.67;;;;;;;10.08;64.06;102774.41;5037475;28;20022;-78
2023/05/27 01:22:01;;;;;;;6.97;2.38;;;;;;;10.06;64.24;102777.00;5037244;28;20116;-78
2023/05/27 01:24:27;;;;;;;12.40;2.85;;;;;;;10.04;64.59;102783.94;5037670;28;20056;-78
2023/05/27 01:26:52;;;;;;;9.38;2.60;;;;;;;10.02;64.39;102781.28;5033702;28;20045;-78
2023/05/27 01:29:18;;;;;;;7.47;2.15;;;;;;;9.99;64.53;102776.06;5034514;28;20087;-78
2023/05/27 01:32:05;;;;;;;8.75;2.45;;;;;;;9.97;63.54;102776.91;5034418;28;20540;-78
2023/05/27 01:34:39;;;;;;;9.05;2.72;;;;;;;9.95;64.68;102778.63;5034059;28;20400;-78
2023/05/27 01:37:08;;;;;;;6.72;2.47;;;;;;;9.90;65.10;102775.16;5033168;28;20461;-78
2023/05/27 01:39:34;;;;;;;8.43;2.63;;;;;;;9.89;65.19;102776.88;5034291;28;20022;-78
2023/05/27 01:42:01;;;;;;;9.60;2.60;;;;;;;9.86;65.01;102780.31;5034355;28;20040;-78
2023/05/27 01:44:29;;;;;;;5.97;2.25;;;;;;;9.84;65.12;102776.84;5034202;28;20026;-78
2023/05/27 01:46:58;;;;;;;5.45;2.30;;;;;;;9.80;65.24;102775.06;5034226;28;20033;-78
2023/05/27 01:49:24;;;;;;;8.57;2.53;;;;;;;9.80;65.66;102774.19;5034006;28;20432;-78
2023/05/27 01:51:49;;;;;;;7.50;2.55;;;;;;;9.76;65.54;102770.69;5034119;28;20453;-78
2023/05/27 01:54:15;;;;;;;8.18;2.28;;;;;;;9.75;65.63;102768.94;5033785;28;21465;-78
2023/05/27 01:56:41;;;;;;;7.90;2.40;;;;;;;9.72;66.16;102767.19;5034018;28;20025;-78
2023/05/27 01:59:06;;;;;;;7.15;2.42;;;;;;;9.70;65.51;102770.66;5033984;28;20029;-77
2023/05/27 02:01:33;;;;;;;6.93;2.53;;;;;;;9.66;65.75;102776.66;5033768;28;20029;-78
2023/05/27 02:03:59;;;;;;;6.90;2.60;;;;;;;9.63;65.77;102766.22;5033812;28;20022;-78
2023/05/27 02:06:25;;;;;;;10.45;3.05;;;;;;;9.61;66.02;102770.53;5034005;28;20481;-78
2023/05/27 02:08:50;;;;;;;7.70;2.40;;;;;;;9.60;66.27;102766.19;5033847;28;20034;-78
2023/05/27 02:11:16;;;;;;;12.23;2.92;;;;;;;9.57;66.29;102762.72;5033521;28;20075;-78
2023/05/27 02:13:42;;;;;;;10.45;2.47;;;;;;;9.52;66.50;102764.41;5033772;28;20033;-78
2023/05/27 02:16:07;;;;;;;6.20;2.40;;;;;;;9.51;66.43;102756.59;5033798;28;20021;-78
2023/05/27 02:18:34;;;;;;;8.77;2.38;;;;;;;9.47;66.66;102760.91;5033596;28;20025;-78
2023/05/27 02:21:05;;;;;;;9.60;2.58;;;;;;;9.46;67.19;102771.28;5033520;28;20179;-78
2023/05/27 02:23:30;;;;;;;9.40;2.50;;;;;;;9.44;66.74;102766.06;5033620;28;20025;-78
2023/05/27 02:25:56;;;;;;;7.15;2.33;;;;;;;9.41;66.94;102761.72;5033288;28;20036;-78
2023/05/27 02:28:21;;;;;;;9.48;2.85;;;;;;;9.40;67.00;102764.28;5033614;28;20111;-78
2023/05/27 02:30:46;;;;;;;8.40;2.85;;;;;;;9.35;67.12;102765.97;5033202;28;20488;-78
2023/05/27 02:33:11;;;;;;;9.48;2.88;;;;;;;9.33;67.15;102762.47;5033225;28;20048;-78
2023/05/27 02:35:37;;;;;;;10.30;2.60;;;;;;;9.31;67.33;102769.38;5033461;28;20330;-78
2023/05/27 02:38:02;;;;;;;10.75;2.90;;;;;;;9.27;67.52;102766.75;5032750;28;20029;-78
2023/05/27 02:40:28;;;;;;;8.27;2.50;;;;;;;9.25;67.57;102767.59;5033389;28;20036;-78
2023/05/27 02:42:55;;;;;;;8.32;2.55;;;;;;;9.23;67.73;102764.09;5033191;28;20034;-78
2023/05/27 02:45:20;;;;;;;7.30;2.72;;;;;;;9.21;67.87;102771.91;5033009;28;20451;-77
2023/05/27 02:47:46;;;;;;;6.55;2.55;;;;;;;9.20;67.74;102767.56;5032881;28;20473;-78
2023/05/27 02:50:11;;;;;;;10.00;3.45;;;;;;;9.18;68.17;102773.56;5031670;28;20037;-78
2023/05/27 02:52:36;;;;;;;7.38;2.42;;;;;;;9.16;68.01;102770.97;5032869;28;20046;-78
2023/05/27 02:55:02;;;;;;;6.78;2.53;;;;;;;9.13;67.96;102772.66;5032954;28;20152;-78
2023/05/27 02:57:27;;;;;;;9.23;2.70;;;;;;;9.10;68.50;102771.78;5032661;28;20523;-78
2023/05/27 02:59:52;;;;;;;7.95;2.33;;;;;;;9.09;68.49;102779.53;5032835;28;20026;-78
2023/05/27 03:02:17;;;;;;;5.82;2.45;;;;;;;9.07;68.40;102776.03;5032608;28;20029;-78
2023/05/27 03:04:43;;;;;;;6.20;2.55;;;;;;;9.04;68.64;102765.63;5032930;28;20208;-77
2023/05/27 03:07:08;;;;;;;7.20;2.70;;;;;;;9.00;68.70;102774.25;5032567;28;20465;-78
2023/05/27 03:09:33;;;;;;;6.55;2.60;;;;;;;8.96;68.95;102779.38;5032540;28;20022;-78
2023/05/27 03:11:59;;;;;;;5.35;2.80;;;;;;;8.95;69.19;102774.19;5032347;28;20025;-78
2023/05/27 03:14:24;;;;;;;7.30;2.70;;;;;;;8.95;68.51;102779.38;5032647;28;20428;-78
2023/05/27 03:16:49;;;;;;;6.93;2.63;;;;;;;8.93;69.28;102783.69;5032400;28;20064;-78
2023/05/27 03:19:14;;;;;;;7.93;2.80;;;;;;;8.91;69.07;102783.63;5032510;28;20033;-78
2023/05/27 03:21:40;;;;;;;7.82;2.70;;;;;;;8.89;69.10;102782.75;5032381;28;20075;-77
2023/05/27 03:24:05;;;;;;;10.27;2.67;;;;;;;8.86;69.41;102781.84;5032408;28;20405;-78
2023/05/27 03:26:31;;;;;;;9.05;2.97;;;;;;;8.84;69.85;102776.66;5032214;28;20465;-77
2023/05/27 03:28:56;;;;;;;7.53;2.67;;;;;;;8.82;69.48;102778.34;5032219;28;21266;-78
2023/05/27 03:31:21;;;;;;;7.00;2.50;;;;;;;8.80;69.54;102772.25;5032203;28;20033;-78
2023/05/27 03:33:47;;;;;;;7.65;2.50;;;;;;;8.79;69.92;102775.72;5032274;28;20021;-78
2023/05/27 03:36:12;;;;;;;9.95;2.83;;;;;;;8.78;69.93;102779.16;5032045;28;20026;-78
2023/05/27 03:38:37;;;;;;;8.77;2.40;;;;;;;8.76;69.92;102775.66;5032217;28;20017;-78
2023/05/27 03:41:03;;;;;;;12.15;3.05;;;;;;;8.74;69.98;102766.97;5032164;28;20388;-78
2023/05/27 03:43:28;;;;;;;9.27;3.42;;;;;;;8.71;70.27;102772.16;5032065;28;20461;-77
2023/05/27 03:45:53;;;;;;;8.38;3.08;;;;;;;8.70;69.98;102765.22;5031879;28;20393;-78
2023/05/27 03:48:18;;;;;;;10.45;2.90;;;;;;;8.68;70.49;102757.41;5031967;28;20060;-78
2023/05/27 03:50:44;;;;;;;9.98;2.55;;;;;;;8.67;70.37;102758.25;5031493;28;20038;-78
2023/05/27 03:53:09;;;;;;;8.88;2.60;;;;;;;8.65;70.57;102747.84;5031760;28;20152;-78
2023/05/27 03:55:35;;;;;;;10.88;2.72;;;;;;;8.67;70.36;102753.06;5032023;28;20083;-78
2023/05/27 03:58:00;;;;;;;9.35;2.72;;;;;;;8.67;70.57;102750.47;5031612;28;20021;-78
2023/05/27 04:00:26;;;;;;;10.20;2.72;;;;;;;8.68;70.86;102756.53;5031887;28;20029;-78
2023/05/27 04:02:51;;;;;;;7.57;2.92;;;;;;;8.68;70.55;102753.94;5032074;28;20053;-78
2023/05/27 04:05:16;;;;;;;7.43;2.60;;;;;;;8.67;70.60;102749.59;5031841;28;20071;-78
2023/05/27 04:07:42;;;;;;;7.25;2.75;;;;;;;8.64;70.94;102748.72;5031671;28;20468;-78
2023/05/27 04:10:08;;;;;;;9.77;2.70;;;;;;;8.63;71.02;102746.97;5031746;28;20029;-78
2023/05/27 04:12:33;;;;;;;9.15;3.10;;;;;;;8.62;71.17;102752.16;5031732;28;20383;-78
2023/05/27 04:14:58;;;;;;;12.43;3.00;;;;;;;8.65;71.09;102757.34;5031793;28;20041;-78
2023/05/27 04:17:23;;;;;;;9.27;3.40;;;;;;;8.65;71.13;102750.44;5031408;28;20025;-78
2023/05/27 04:19:49;;;;;;;9.35;3.03;;;;;;;8.67;71.26;102749.59;5031704;28;20021;-78
2023/05/27 04:22:14;;;;;;;10.52;2.90;;;;;;;8.68;71.45;102747.00;5031821;28;20326;-78
2023/05/27 04:24:40;;;;;;;7.18;2.88;;;;;;;8.69;71.35;102742.72;5031711;28;20501;-78
2023/05/27 04:27:06;;;;;;;8.68;2.92;;;;;;;8.71;71.24;102741.00;5031502;28;20057;-78
2023/05/27 04:29:32;;;;;;;9.85;3.35;;;;;;;8.72;71.50;102737.53;5031585;28;20477;-77
2023/05/27 04:31:58;;;;;;;11.00;3.10;;;;;;;8.74;71.63;102730.66;5031295;28;20029;-78
2023/05/27 04:34:23;;;;;;;8.05;2.70;;;;;;;8.77;71.61;102730.69;5031381;28;20057;-78
2023/05/27 04:36:49;;;;;;;7.28;2.90;;;;;;;8.78;71.51;102732.44;5031554;28;20025;-78
2023/05/27 04:39:16;;;;;;;8.73;3.00;;;;;;;8.80;71.73;102722.94;5031431;28;20408;-78
2023/05/27 04:41:41;;;;;;;10.40;3.10;;;;;;;8.81;71.48;102722.09;5031483;28;20053;-78
2023/05/27 04:44:07;;;;;;;10.32;2.85;;;;;;;8.85;71.33;102723.00;5031358;28;20045;-78
2023/05/27 04:46:33;;;;;;;12.55;3.10;;;;;;;8.86;71.98;102724.75;5031204;28;20115;-78
2023/05/27 04:48:59;;;;;;;11.20;3.20;;;;;;;8.86;71.68;102725.63;5031343;28;20022;-78
2023/05/27 04:51:24;;;;;;;9.13;3.10;;;;;;;8.89;71.97;102719.59;5031309;28;20028;-77
2023/05/27 04:53:50;;;;;;;9.63;3.25;;;;;;;8.93;71.78;102722.22;5031094;28;20041;-77
2023/05/27 04:56:17;;;;;;;7.53;2.83;;;;;;;8.99;71.92;102725.75;5031436;28;20029;-78
2023/05/27 04:58:44;;;;;;;9.38;2.95;;;;;;;9.00;71.90;102723.16;5031443;28;20033;-77
2023/05/27 05:01:17;;;;;;;10.93;3.30;;;;;;;9.03;71.98;102730.16;5033251;28;20051;-78
2023/05/27 05:04:12;;;;;;;9.40;3.10;;;;;;;9.08;71.64;102718.06;5035069;28;20036;-77
2023/05/27 05:06:39;;;;;;;8.38;2.97;;;;;;;9.12;72.00;102719.84;5033874;28;20025;-77
2023/05/27 05:09:05;;;;;;;10.35;3.20;;;;;;;9.14;71.95;102723.34;5033666;28;20057;-78
2023/05/27 05:11:30;;;;;;;8.88;3.50;;;;;;;9.18;72.01;102719.91;5034772;28;20377;-78
2023/05/27 05:13:56;;;;;;;10.32;3.08;;;;;;;9.23;71.76;102715.63;5034688;28;20032;-78
2023/05/27 05:16:21;;;;;;;10.40;3.20;;;;;;;9.30;71.87;102715.69;5033903;28;20040;-78
2023/05/27 05:18:46;;;;;;;10.40;3.00;;;;;;;9.34;72.16;102715.72;5034786;28;20037;-78
2023/05/27 05:21:11;;;;;;;8.73;2.90;;;;;;;9.40;71.89;102718.41;5034639;28;20045;-78
2023/05/27 05:23:37;;;;;;;7.35;2.83;;;;;;;9.46;71.98;102722.78;5034365;28;20025;-78
2023/05/27 05:26:06;;;;;;;11.18;3.33;;;;;;;9.52;72.15;102720.25;5032697;28;20025;-78
2023/05/27 05:28:32;;;;;;;9.82;3.22;;;;;;;9.58;72.00;102722.03;5033933;28;20487;-78
2023/05/27 05:30:58;;;;;;;8.10;2.53;;;;;;;9.63;72.05;102715.16;5034470;28;20087;-77
2023/05/27 05:33:23;;;;;;;9.57;3.05;;;;;;;9.69;71.49;102715.19;5034118;28;20061;-77
2023/05/27 05:35:48;;;;;;;11.13;3.17;;;;;;;9.75;72.32;102719.56;5034466;28;20430;-77
2023/05/27 05:38:13;;;;;;;11.75;3.28;;;;;;;9.79;71.52;102713.53;5034595;28;20063;-77
2023/05/27 05:40:39;;;;;;;7.75;3.10;;;;;;;9.85;71.62;102710.09;5034286;28;20036;-77
2023/05/27 05:43:04;;;;;;;9.23;3.17;;;;;;;9.91;71.50;102704.94;5034001;28;20040;-77
2023/05/27 05:45:30;;;;;;;9.27;3.17;;;;;;;9.95;71.34;102705.84;5034448;28;20049;-77
2023/05/27 05:47:55;;;;;;;7.88;2.95;;;;;;;9.98;71.10;102701.56;5034277;28;20112;-77
2023/05/27 05:50:21;;;;;;;11.52;3.28;;;;;;;10.05;70.98;102707.66;5034247;28;20528;-77
2023/05/27 05:52:46;;;;;;;7.40;2.92;;;;;;;10.10;71.90;102716.34;5033690;28;20054;-77
2023/05/27 05:55:11;;;;;;;7.45;2.85;;;;;;;10.14;71.17;102707.69;5034149;28;20037;-78
2023/05/27 05:57:36;;;;;;;8.43;3.22;;;;;;;10.18;71.17;102693.88;5034069;28;20099;-78
2023/05/27 06:00:03;;;;;;;9.88;3.45;;;;;;;10.25;71.07;102704.28;5034247;28;20030;-77
2023/05/27 06:02:28;;;;;;;8.57;3.15;;;;;;;10.31;70.59;102699.13;5033757;28;20030;-78
2023/05/27 06:04:53;;;;;;;8.30;3.15;;;;;;;10.36;70.72;102699.13;5032736;28;20117;-78
2023/05/27 06:07:18;;;;;;;12.18;3.28;;;;;;;10.40;70.59;102701.81;5034012;28;20026;-78
2023/05/27 06:09:44;;;;;;;10.85;3.15;;;;;;;10.45;71.28;102697.50;5033754;28;20420;-78
2023/05/27 06:12:09;;;;;;;9.80;3.35;;;;;;;10.53;70.63;102688.88;5032948;28;20033;-77
2023/05/27 06:14:35;;;;;;;10.68;3.60;;;;;;;10.59;71.30;102694.09;5033949;28;20021;-77
2023/05/27 06:17:00;;;;;;;8.70;3.20;;;;;;;10.65;71.38;102694.09;5033687;28;20495;-77
2023/05/27 06:19:25;;;;;;;11.20;3.58;;;;;;;10.71;70.45;102699.34;5033685;28;20075;-77
2023/05/27 06:21:51;;;;;;;10.25;3.60;;;;;;;10.79;69.81;102696.78;5033362;28;20025;-77
2023/05/27 06:24:16;;;;;;;10.82;3.35;;;;;;;10.82;69.48;102696.78;5033654;28;20039;-78
2023/05/27 06:26:41;;;;;;;8.13;3.50;;;;;;;10.86;70.01;102692.44;5033586;28;20021;-78
2023/05/27 06:29:07;;;;;;;8.68;3.55;;;;;;;10.92;70.60;102687.28;5033397;28;20029;-77
2023/05/27 06:31:33;;;;;;;13.93;4.30;;;;;;;10.98;70.73;102684.66;5033208;28;20033;-78
2023/05/27 06:33:58;;;;;;;13.80;4.25;;;;;;;11.04;70.41;102684.69;5033090;28;20047;-78
2023/05/27 06:36:24;;;;;;;10.13;4.10;;;;;;;11.11;69.67;102676.88;5033527;28;20044;-78
2023/05/27 06:38:49;;;;;;;9.10;4.00;;;;;;;11.16;70.12;102680.34;5033202;28;20025;-78
2023/05/27 06:41:14;;;;;;;13.10;4.40;;;;;;;11.23;70.16;102679.50;5033512;28;20033;-78
2023/05/27 06:43:41;;;;;;;9.35;4.07;;;;;;;11.30;69.97;102676.03;5032937;28;20096;-78
2023/05/27 06:46:06;;;;;;;10.05;3.30;;;;;;;11.37;69.56;102669.06;5033197;28;20104;-78
2023/05/27 06:48:32;;;;;;;9.15;3.33;;;;;;;11.41;69.01;102673.41;5033144;28;20113;-78
2023/05/27 06:50:57;;;;;;;10.23;3.30;;;;;;;11.45;68.94;102669.06;5033070;28;20068;-78
2023/05/27 06:53:22;;;;;;;11.70;3.60;;;;;;;11.50;69.23;102665.63;5032459;28;20497;-79
2023/05/27 06:55:47;;;;;;;10.73;3.50;;;;;;;11.57;68.91;102670.81;5031766;28;20032;-78
2023/05/27 06:58:13;;;;;;;9.75;3.80;;;;;;;11.61;69.08;102668.22;5032909;28;20091;-78
2023/05/27 07:00:38;;;;;;;11.20;3.90;;;;;;;11.68;69.48;102667.34;5033061;28;20107;-78
2023/05/27 07:03:03;;;;;;;10.20;3.83;;;;;;;11.75;69.70;102659.53;5032482;28;20025;-78
2023/05/27 07:05:28;;;;;;;11.98;3.63;;;;;;;11.81;68.56;102659.50;5032823;28;20021;-78
2023/05/27 07:07:54;;;;;;;9.52;3.35;;;;;;;11.86;67.75;102662.97;5032695;28;20381;-78
2023/05/27 07:10:19;;;;;;;12.52;3.90;;;;;;;11.89;67.42;102660.34;5032459;28;20087;-78
2023/05/27 07:12:44;;;;;;;12.00;3.58;;;;;;;11.93;69.28;102656.88;5032563;28;20124;-78
2023/05/27 07:15:10;;;;;;;12.15;3.88;;;;;;;11.99;67.78;102658.63;5032707;28;20029;-78
2023/05/27 07:17:35;;;;;;;10.07;3.78;;;;;;;12.05;67.72;102652.53;5032399;28;20095;-78
2023/05/27 07:20:01;;;;;;;10.48;3.58;;;;;;;12.10;68.45;102656.00;5032444;28;20017;-78
2023/05/27 07:22:26;;;;;;;7.45;3.42;;;;;;;12.15;68.20;102654.22;5032382;28;20060;-78
2023/05/27 07:24:52;;;;;;;12.90;4.18;;;;;;;12.21;67.31;102653.38;5031482;28;20029;-78
2023/05/27 07:27:17;;;;;;;10.30;3.70;;;;;;;12.24;66.94;102658.53;5032456;28;20151;-78
2023/05/27 07:29:42;;;;;;;11.20;4.13;;;;;;;12.27;67.15;102654.19;5032359;28;20033;-78
2023/05/27 07:32:07;;;;;;;11.63;4.07;;;;;;;12.32;66.70;102654.19;5031919;28;20029;-78
2023/05/27 07:34:33;;;;;;;10.10;3.47;;;;;;;12.34;66.68;102655.03;5031872;28;20029;-79
2023/05/27 07:36:58;;;;;;;11.65;3.80;;;;;;;12.40;66.83;102652.38;5032257;28;20037;-78
2023/05/27 07:39:24;;;;;;;10.65;3.78;;;;;;;12.45;68.00;102645.41;5031930;28;20027;-78
2023/05/27 07:41:49;;;;;;;10.40;3.50;;;;;;;12.52;66.55;102648.00;5032189;28;20579;-78
2023/05/27 07:44:14;;;;;;;10.25;4.15;;;;;;;12.56;66.50;102649.72;5032081;28;20033;-78
2023/05/27 07:46:40;;;;;;;12.75;3.90;;;;;;;12.60;66.09;102646.22;5031907;28;20105;-78
2023/05/27 07:49:05;;;;;;;8.57;3.88;;;;;;;12.64;65.87;102634.88;5032065;28;20048;-78
2023/05/27 07:51:31;;;;;;;12.20;3.90;;;;;;;12.68;66.56;102630.50;5031813;28;20030;-78
2023/05/27 07:53:57;;;;;;;11.05;3.90;;;;;;;12.73;66.02;102626.97;5031785;28;20052;-78
2023/05/27 07:56:22;;;;;;;8.70;3.75;;;;;;;12.80;66.76;102625.22;5031759;28;20056;-78
2023/05/27 07:58:47;;;;;;;13.90;4.03;;;;;;;12.85;66.95;102623.44;5031943;28;20033;-77
2023/05/27 08:01:13;;;;;;;11.68;3.90;;;;;;;12.92;66.27;102623.41;5031566;28;20033;-78
2023/05/27 08:03:38;;;;;;;10.07;3.97;;;;;;;12.98;65.63;102620.75;5031916;28;20042;-78
2023/05/27 08:06:03;;;;;;;9.65;3.90;;;;;;;13.02;64.73;102625.06;5031939;28;20033;-78
2023/05/27 08:08:28;;;;;;;11.20;4.43;;;;;;;13.04;64.28;102620.69;5031637;28;20038;-78
2023/05/27 08:10:54;;;;;;;9.60;4.00;;;;;;;13.08;64.87;102616.31;5031518;28;20025;-78
2023/05/27 08:13:19;;;;;;;11.98;4.10;;;;;;;13.12;65.29;102618.03;5031688;28;20396;-78
2023/05/27 08:15:44;;;;;;;12.75;4.80;;;;;;;13.17;64.38;102617.09;5031771;28;20087;-78
2023/05/27 08:18:10;;;;;;;12.05;3.88;;;;;;;13.23;64.14;102612.72;5031848;28;20594;-78
2023/05/27 08:20:35;;;;;;;10.48;4.53;;;;;;;13.27;64.03;102604.81;5031472;28;20032;-78
2023/05/27 08:23:00;;;;;;;11.73;3.88;;;;;;;13.32;64.34;102596.97;5031531;28;20503;-78
2023/05/27 08:25:25;;;;;;;10.20;4.35;;;;;;;13.39;64.46;102592.53;5031637;28;20021;-78
2023/05/27 08:27:53;;;;;;;13.10;4.30;;;;;;;13.46;65.46;102591.63;5031119;28;20503;-78
2023/05/27 08:30:18;;;;;;;11.50;4.05;;;;;;;13.54;65.18;102584.59;5029839;28;20536;-78
2023/05/27 08:32:44;;;;;;;9.50;3.80;;;;;;;13.60;62.72;102583.66;5030142;28;20029;-78
2023/05/27 08:35:10;;;;;;;9.90;4.07;;;;;;;13.63;63.21;102586.22;5031345;28;20036;-78
2023/05/27 08:37:36;;;;;;;10.80;4.07;;;;;;;13.66;63.35;102578.34;5035244;28;20033;-78
2023/05/27 08:40:06;;;;;;;13.30;4.28;;;;;;;13.71;62.91;102575.69;5032909;28;20598;-79
2023/05/27 08:42:32;;;;;;;13.60;4.60;;;;;;;13.74;63.08;102567.81;5034942;28;20049;-79
2023/05/27 08:44:58;;;;;;;11.18;4.07;;;;;;;13.79;63.12;102564.25;5035434;28;20104;-78
2023/05/27 08:47:23;;;;;;;12.48;4.47;;;;;;;13.86;63.49;102565.03;5034471;28;20029;-78
2023/05/27 08:49:49;;;;;;;12.60;4.43;;;;;;;13.95;63.62;102564.06;5034228;28;20034;-79
2023/05/27 08:52:18;;;;;;;11.43;4.20;;;;;;;14.04;62.34;102557.84;5034458;28;20065;-79
2023/05/27 08:54:45;;;;;;;10.23;4.50;;;;;;;14.11;62.66;102552.53;5034642;28;20079;-79
2023/05/27 08:57:12;;;;;;;12.10;4.40;;;;;;;14.21;63.42;102549.75;5035136;28;20022;-79
2023/05/27 08:59:39;;;;;;;10.18;4.65;;;;;;;14.30;61.09;102549.66;5035044;28;20029;-79
2023/05/27 09:02:11;;;;;;;10.63;4.10;;;;;;;14.37;61.72;102548.66;5034767;28;20022;-79
2023/05/27 09:04:38;;;;;;;10.70;4.18;;;;;;;14.47;60.95;102545.94;5034823;28;20036;-79
2023/05/27 09:07:03;;;;;;;9.75;4.30;;;;;;;14.56;60.47;102537.91;5033568;28;20037;-80
2023/05/27 09:09:29;;;;;;;10.55;4.25;;;;;;;14.64;60.25;102543.94;5033756;28;20508;-79
2023/05/27 09:11:59;;;;;;;12.60;4.30;;;;;;;14.76;60.52;102536.78;5036353;28;20057;-79
2023/05/27 09:14:27;;;;;;;11.07;4.28;;;;;;;14.81;60.26;102530.56;5033801;28;20484;-79
2023/05/27 09:16:53;;;;;;;12.73;4.13;;;;;;;14.90;60.59;102529.56;5034785;28;20111;-80
2023/05/27 09:19:18;;;;;;;10.57;4.20;;;;;;;14.99;59.29;102529.41;5034581;28;20057;-79
2023/05/27 09:21:45;;;;;;;9.82;3.88;;;;;;;15.11;58.54;102522.22;5034416;28;20029;-79
2023/05/27 09:24:11;;;;;;;8.32;3.50;;;;;;;15.18;59.42;102523.84;5033428;28;20425;-80
2023/05/27 09:26:37;;;;;;;9.35;4.10;;;;;;;15.26;58.48;102511.44;5034526;28;20024;-79
2023/05/27 09:29:08;;;;;;;10.65;4.13;;;;;;;15.35;58.65;102514.81;5034259;28;20151;-79
2023/05/27 09:31:41;;;;;;;10.23;3.78;;;;;;;15.43;59.02;102507.63;5033375;28;20021;-83
2023/05/27 09:34:14;;;;;;;9.70;4.07;;;;;;;15.54;58.26;102507.44;5034765;28;20037;-79
2023/05/27 09:36:47;;;;;;;8.38;3.70;;;;;;;15.61;57.35;102507.28;5034554;28;20029;-79
2023/05/27 09:39:17;;;;;;;11.27;3.50;;;;;;;15.69;57.23;102512.38;5033320;28;20040;-79
2023/05/27 09:41:43;;;;;;;9.77;3.65;;;;;;;15.76;56.22;102507.84;5034368;28;20033;-78
2023/05/27 09:44:08;;;;;;;12.25;4.13;;;;;;;15.82;55.14;102507.72;5034451;28;20057;-79
2023/05/27 09:46:35;;;;;;;14.95;3.72;;;;;;;15.87;55.97;102508.53;5033536;28;20037;-79
2023/05/27 09:49:04;;;;;;;11.82;4.05;;;;;;;15.92;54.73;102506.66;5033366;28;20072;-79
2023/05/27 09:51:32;;;;;;;8.65;3.58;;;;;;;15.98;55.82;102499.56;5033449;28;20025;-79
2023/05/27 09:53:58;;;;;;;12.55;3.75;;;;;;;16.04;55.46;102491.56;5034065;28;20041;-79
2023/05/27 09:56:26;;;;;;;8.95;3.42;;;;;;;16.11;57.63;102487.03;5033564;28;20079;-79
2023/05/27 09:58:53;;;;;;;9.10;3.75;;;;;;;16.15;54.25;102483.41;5032564;28;20022;-78
2023/05/27 10:01:20;;;;;;;9.88;3.22;;;;;;;16.18;54.03;102486.84;5033179;28;20465;-79
2023/05/27 10:03:46;;;;;;;10.50;3.45;;;;;;;16.21;53.59;102478.91;5033568;28;20037;-78
2023/05/27 10:06:16;;;;;;;11.43;3.25;;;;;;;16.24;55.11;102476.19;5033223;28;20504;-78
2023/05/27 10:08:42;;;;;;;7.75;3.40;;;;;;;16.29;54.28;102475.22;5033362;28;20029;-78
2023/05/27 10:11:09;;;;;;;10.48;3.88;;;;;;;16.34;55.83;102476.00;5033578;28;20029;-78
2023/05/27 10:13:35;;;;;;;9.27;3.63;;;;;;;16.43;56.65;102469.66;5032964;28;20033;-78
2023/05/27 10:16:01;;;;;;;8.85;3.40;;;;;;;16.47;53.62;102472.16;5032102;28;20052;-78
2023/05/27 10:18:29;;;;;;;8.10;2.90;;;;;;;16.51;53.86;102468.56;5033019;28;20413;-77
2023/05/27 10:20:57;;;;;;;7.07;2.70;;;;;;;16.54;50.45;102467.63;5033454;28;20437;-78
2023/05/27 10:23:27;;;;;;;8.38;2.60;;;;;;;16.57;50.56;102466.69;5033413;28;20021;-78
2023/05/27 10:26:06;;;;;;;8.27;2.75;;;;;;;16.61;51.29;102465.69;5032156;28;20060;-78
2023/05/27 10:28:39;;;;;;;7.43;2.80;;;;;;;16.60;52.80;102462.22;5032193;28;20025;-78
2023/05/27 10:31:07;;;;;;;6.43;2.90;;;;;;;16.63;53.87;102462.16;5033369;28;20516;-78
2023/05/27 10:33:44;;;;;;;7.90;3.13;;;;;;;16.68;53.64;102454.13;5033153;28;20030;-78
2023/05/27 10:36:10;;;;;;;9.88;3.05;;;;;;;16.67;51.37;102448.00;5033223;28;20025;-78
2023/05/27 10:38:37;;;;;;;9.48;3.53;;;;;;;16.65;53.77;102456.84;5033387;28;20061;-78
2023/05/27 10:41:05;;;;;;;10.23;3.60;;;;;;;16.64;51.47;102447.22;5032051;28;20057;-79
2023/05/27 10:43:31;;;;;;;8.50;3.33;;;;;;;16.63;54.30;102445.50;5033275;28;20017;-78
2023/05/27 10:46:12;;;;;;;9.05;3.40;;;;;;;16.65;53.32;102448.94;5033115;28;20477;-78
2023/05/27 10:48:39;;;;;;;8.55;3.30;;;;;;;16.66;51.74;102442.78;5033243;28;20025;-78
2023/05/27 10:51:06;;;;;;;10.25;3.45;;;;;;;16.71;53.03;102440.03;5033189;28;20026;-78
2023/05/27 10:53:31;;;;;;;11.48;3.20;;;;;;;16.73;51.61;102446.13;5032381;28;20556;-78
2023/05/27 10:55:59;;;;;;;10.50;3.22;;;;;;;16.73;52.17;102436.50;5030763;28;20104;-78
2023/05/27 10:58:24;;;;;;;8.90;3.38;;;;;;;16.76;50.34;102439.00;5030157;28;20053;-78
2023/05/27 11:00:51;;;;;;;7.93;3.13;;;;;;;16.79;51.27;102431.06;5032734;28;20132;-79
2023/05/27 11:03:24;;;;;;;10.48;3.20;;;;;;;16.85;50.97;102416.88;5032431;28;20021;-79
2023/05/27 11:05:58;;;;;;;8.82;3.10;;;;;;;16.89;50.95;102415.06;5032752;28;20029;-79
2023/05/27 11:08:24;;;;;;;9.85;3.03;;;;;;;16.91;49.22;102418.50;5032625;28;20029;-79
2023/05/27 11:10:49;;;;;;;8.75;2.70;;;;;;;16.95;50.36;102414.91;5032101;28;20147;-77
2023/05/27 11:13:14;;;;;;;9.65;2.95;;;;;;;17.01;48.35;102412.13;5031236;28;20021;-79
2023/05/27 11:15:41;;;;;;;6.22;2.58;;;;;;;17.07;49.21;102414.59;5031771;28;20029;-80
2023/05/27 11:18:07;;;;;;;7.47;2.78;;;;;;;17.13;49.22;102411.75;5031742;28;20473;-79
2023/05/27 11:20:36;;;;;;;7.85;2.78;;;;;;;17.18;49.35;102401.09;5032475;28;20017;-79